Brooklyn, New York
Current Conditions -  °F | °C
As of 2:51 AM on Thursday 23 Oct 2014 (Local Time) from KJFK Reporting Station
Overcast Overcast  
Wind Chill: 54°   Ceiling: 2300
Heat Index: 54°   Visibility: 10mi
Dew Point: 46°   Wind: 26mph
Humidity: 75%   Direction: 10°N
Pressure: 29.69"   Gusts: 35mph
Location:  40.64°N, 73.96°W
Report Text: KJFK 230651Z 01023G30KT 10SM OVC023 12/08 A2969 RMK AO2 PK WND 01030/0650 SLP052 T01220078
Loading
Personal Weather Stations






























Interactive Weather Map
Tropical Storm Tracking
New forecast layout! Learn more

10-Day Weather Forecast

Advertisements
Track Severe Weather on mobile